Time;durP1;ratioP1;P1;durP2;ratioP2;P2;SDS_P1;SDS_P2;PMS_P1;PMS_P2;Temp;Humidity;BMP_temperature;BMP_pressure;BME280_temperature;BME280_humidity;BME280_pressure;Samples;Min_cycle;Max_cycle;Signal;HPM_P1;HPM_P2
2022/12/31 00:01:00;;;;;;;12.48;5.70;;;;;;;12.07;57.23;100282.22;7393196;19;20031;-59
2022/12/31 00:03:26;;;;;;;13.55;5.97;;;;;;;11.89;58.03;100275.66;7391523;19;20039;-59
2022/12/31 00:05:52;;;;;;;14.18;6.57;;;;;;;12.10;56.89;100270.56;7395195;19;20478;-58
2022/12/31 00:08:18;;;;;;;12.40;6.32;;;;;;;12.16;56.83;100280.06;7389460;19;20023;-58
2022/12/31 00:10:44;;;;;;;11.45;6.43;;;;;;;12.14;57.24;100278.81;7393085;19;20015;-58
2022/12/31 00:13:11;;;;;;;11.23;6.15;;;;;;;12.25;56.86;100287.25;7391530;19;20022;-58
2022/12/31 00:15:38;;;;;;;12.50;6.78;;;;;;;12.13;57.03;100285.47;7394729;19;20018;-58
2022/12/31 00:18:04;;;;;;;11.75;6.35;;;;;;;12.02;57.84;100286.09;7391994;19;20459;-58
2022/12/31 00:20:30;;;;;;;10.10;5.50;;;;;;;12.18;57.19;100272.28;7392017;19;19995;-58
2022/12/31 00:22:56;;;;;;;12.05;6.28;;;;;;;12.16;57.07;100277.31;7393999;19;20001;-59
2022/12/31 00:25:22;;;;;;;15.13;6.93;;;;;;;12.25;56.84;100277.06;7394399;19;20006;-58
2022/12/31 00:27:48;;;;;;;11.00;5.63;;;;;;;12.33;56.84;100283.47;7390927;19;19995;-62
2022/12/31 00:30:14;;;;;;;10.52;5.38;;;;;;;11.96;57.72;100281.28;7393969;19;20026;-58
2022/12/31 00:32:40;;;;;;;13.45;6.68;;;;;;;12.05;57.73;100284.53;7393044;19;20081;-59
2022/12/31 00:35:06;;;;;;;11.98;6.43;;;;;;;12.02;58.56;100277.88;7393698;19;20006;-60
2022/12/31 00:37:32;;;;;;;11.98;5.68;;;;;;;12.09;59.87;100288.16;7393024;19;20009;-60
2022/12/31 00:39:57;;;;;;;10.65;6.07;;;;;;;11.97;61.56;100294.59;7393127;19;19995;-58
2022/12/31 00:42:23;;;;;;;10.25;5.15;;;;;;;12.29;60.98;100304.50;7396641;19;19991;-59
2022/12/31 00:44:49;;;;;;;9.05;4.90;;;;;;;12.19;62.13;100301.22;7397976;19;19995;-59
2022/12/31 00:47:14;;;;;;;12.60;5.22;;;;;;;12.40;62.37;100308.22;7393953;19;19986;-61
2022/12/31 00:49:40;;;;;;;8.05;4.18;;;;;;;12.49;62.44;100311.50;7396924;19;20006;-59
2022/12/31 00:52:06;;;;;;;6.95;4.32;;;;;;;12.83;62.10;100317.09;7396875;19;20012;-58
2022/12/31 00:54:32;;;;;;;7.95;4.15;;;;;;;12.91;62.25;100318.81;7396213;19;20005;-58
2022/12/31 00:56:58;;;;;;;7.95;4.53;;;;;;;12.92;62.26;100317.63;7396354;19;19999;-58
2022/12/31 00:59:24;;;;;;;8.65;4.40;;;;;;;13.00;62.02;100321.28;7395133;19;20062;-59
2022/12/31 01:01:50;;;;;;;7.25;4.07;;;;;;;13.04;62.04;100324.06;7396586;19;20006;-58
2022/12/31 01:04:19;;;;;;;7.55;4.50;;;;;;;12.98;62.09;100312.66;7395655;19;19987;-58
2022/12/31 01:06:44;;;;;;;6.97;3.97;;;;;;;12.91;62.36;100312.56;7396185;19;20005;-58
2022/12/31 01:09:12;;;;;;;7.50;4.07;;;;;;;12.94;62.17;100307.13;7394692;19;20014;-59
2022/12/31 01:11:38;;;;;;;7.07;4.25;;;;;;;12.88;62.20;100297.63;7394629;19;20479;-57
2022/12/31 01:14:10;;;;;;;7.38;3.80;;;;;;;13.02;61.78;100296.25;7393608;19;20089;-57
2022/12/31 01:16:41;;;;;;;8.95;4.20;;;;;;;13.09;61.48;100299.91;7396329;19;20087;-57
2022/12/31 01:19:11;;;;;;;8.13;4.10;;;;;;;13.10;61.16;100303.41;7396459;19;20013;-58
2022/12/31 01:21:39;;;;;;;7.53;4.05;;;;;;;13.04;61.41;100305.69;7396160;19;20003;-58
2022/12/31 01:24:05;;;;;;;6.45;3.70;;;;;;;12.94;61.61;100320.00;7395202;19;19999;-58
2022/12/31 01:26:31;;;;;;;8.05;4.20;;;;;;;13.07;61.39;100312.38;7394298;19;20005;-58
2022/12/31 01:29:04;;;;;;;8.02;4.05;;;;;;;13.18;60.61;100309.81;7395750;19;20095;-58
2022/12/31 01:31:32;;;;;;;7.10;3.55;;;;;;;13.12;61.13;100309.31;7396622;19;20014;-58
2022/12/31 01:33:58;;;;;;;7.70;3.85;;;;;;;13.07;60.95;100315.13;7392423;19;19998;-59
2022/12/31 01:36:27;;;;;;;6.22;3.45;;;;;;;13.10;60.56;100309.69;7395153;19;20013;-58
2022/12/31 01:38:54;;;;;;;6.50;3.40;;;;;;;13.14;60.38;100304.25;7396021;19;19990;-59
2022/12/31 01:41:24;;;;;;;5.57;3.38;;;;;;;13.15;60.53;100311.31;7393895;19;19995;-59
2022/12/31 01:43:57;;;;;;;5.97;3.15;;;;;;;13.14;59.82;100309.72;7395306;19;19995;-58
2022/12/31 01:46:44;;;;;;;5.93;3.28;;;;;;;13.12;60.04;100306.56;7395295;19;20105;-58
2022/12/31 01:49:17;;;;;;;6.35;3.15;;;;;;;12.91;60.61;100299.66;7393690;19;20001;-58
2022/12/31 01:51:46;;;;;;;6.38;3.00;;;;;;;13.07;60.38;100313.16;7395256;19;20070;-59
2022/12/31 01:54:15;;;;;;;6.55;3.03;;;;;;;13.22;59.95;100305.94;7394661;19;19994;-58
2022/12/31 01:56:42;;;;;;;7.70;3.10;;;;;;;13.09;59.34;100318.28;7394718;19;19999;-58
2022/12/31 01:59:09;;;;;;;5.55;2.70;;;;;;;13.08;60.09;100316.72;7393518;19;20454;-58
2022/12/31 02:01:37;;;;;;;5.28;2.90;;;;;;;13.14;59.59;100306.97;7393400;19;20009;-58
2022/12/31 02:04:08;;;;;;;7.70;3.33;;;;;;;13.21;59.55;100304.38;7394573;19;20005;-59
2022/12/31 02:07:04;;;;;;;7.45;2.60;;;;;;;12.99;58.19;100307.97;7394965;19;20003;-59
2022/12/31 02:09:31;;;;;;;6.97;2.60;;;;;;;13.04;59.98;100311.19;7392491;19;20006;-58
2022/12/31 02:11:56;;;;;;;7.50;2.53;;;;;;;12.98;59.99;100307.19;7394842;19;20013;-58
2022/12/31 02:14:32;;;;;;;5.80;2.50;;;;;;;13.05;59.16;100306.47;7393717;19;20070;-58
2022/12/31 02:17:18;;;;;;;5.80;2.92;;;;;;;13.02;58.53;100301.75;7393711;19;20003;-58
2022/12/31 02:19:47;;;;;;;6.38;2.60;;;;;;;12.98;59.91;100298.97;7390555;19;20301;-59
2022/12/31 02:22:54;;;;;;;5.22;2.60;;;;;;;12.99;58.21;100316.97;7394481;19;20455;-57
2022/12/31 02:26:03;;;;;;;5.32;2.78;;;;;;;12.75;59.91;100305.22;7392418;19;19990;-59
2022/12/31 02:28:54;;;;;;;4.03;2.33;;;;;;;12.76;59.50;100311.53;7392155;19;20007;-60
2022/12/31 02:31:34;;;;;;;4.97;2.60;;;;;;;12.87;59.54;100317.19;7393690;19;19999;-57
2022/12/31 02:34:25;;;;;;;4.82;2.38;;;;;;;12.89;59.79;100321.16;7391529;19;20007;-59
2022/12/31 02:36:53;;;;;;;3.15;2.03;;;;;;;13.09;59.90;100321.00;7392436;19;20078;-57
2022/12/31 02:39:20;;;;;;;3.60;2.00;;;;;;;13.10;59.81;100319.88;7393252;19;20002;-59
2022/12/31 02:41:50;;;;;;;4.72;2.40;;;;;;;13.16;59.81;100315.66;7393912;19;20026;-57
2022/12/31 02:44:23;;;;;;;5.18;2.13;;;;;;;13.16;59.17;100310.16;7393105;19;20067;-58
2022/12/31 02:47:26;;;;;;;2.75;2.00;;;;;;;13.25;58.54;100310.66;7393009;19;20007;-57
2022/12/31 02:50:16;;;;;;;2.65;1.90;;;;;;;13.28;58.72;100298.97;7391680;19;20056;-58
2022/12/31 02:53:08;;;;;;;3.95;2.30;;;;;;;13.40;59.01;100305.38;7391189;19;20006;-57
2022/12/31 02:55:58;;;;;;;2.83;2.00;;;;;;;13.48;58.54;100312.53;7393683;19;19998;-57
2022/12/31 03:04:31;;;;;;;5.30;2.13;;;;;;;13.51;58.85;100317.28;7389003;19;20062;-57
2022/12/31 03:07:06;;;;;;;3.45;2.10;;;;;;;13.51;58.55;100314.53;7388059;19;20006;-58
2022/12/31 03:09:33;;;;;;;2.42;1.77;;;;;;;13.50;58.84;100315.69;7387867;19;20034;-58
2022/12/31 03:14:44;;;;;;;2.90;2.00;;;;;;;13.53;58.89;100312.19;7396293;19;20007;-58
2022/12/31 03:17:10;;;;;;;3.50;2.10;;;;;;;13.52;58.52;100305.13;7395802;19;20014;-58
2022/12/31 03:22:26;;;;;;;4.53;2.10;;;;;;;13.48;58.69;100307.06;7395541;19;20009;-58
2022/12/31 03:25:36;;;;;;;3.65;1.80;;;;;;;13.38;58.34;100299.50;7395226;19;20002;-58
2022/12/31 03:28:08;;;;;;;3.42;1.77;;;;;;;13.55;58.23;100307.13;7393121;19;20531;-58
2022/12/31 03:30:36;;;;;;;1.88;1.45;;;;;;;13.49;58.32;100303.94;7395746;19;20002;-59
2022/12/31 03:33:03;;;;;;;2.40;1.73;;;;;;;13.54;58.44;100311.00;7395233;19;20483;-59
2022/12/31 03:35:31;;;;;;;2.22;1.48;;;;;;;13.60;58.15;100314.25;7395995;19;20003;-59
2022/12/31 03:37:57;;;;;;;3.20;1.58;;;;;;;13.60;58.15;100317.75;7391844;19;20352;-59
2022/12/31 03:40:24;;;;;;;2.92;1.67;;;;;;;13.57;58.20;100320.47;7393600;19;20002;-58
2022/12/31 03:42:50;;;;;;;2.22;1.60;;;;;;;13.62;58.23;100329.13;7395201;19;19991;-57
2022/12/31 03:45:17;;;;;;;2.45;1.60;;;;;;;13.63;58.02;100329.94;7396092;19;20015;-59
2022/12/31 03:47:43;;;;;;;2.03;1.40;;;;;;;13.57;58.10;100332.22;7392044;19;20344;-59
2022/12/31 03:50:11;;;;;;;4.63;1.60;;;;;;;13.50;58.12;100319.22;7392694;19;20010;-57
2022/12/31 03:52:37;;;;;;;3.22;1.60;;;;;;;13.54;57.84;100326.69;7394142;19;19994;-60
2022/12/31 03:55:04;;;;;;;3.40;1.90;;;;;;;13.37;57.61;100320.59;7394461;19;20042;-61
2022/12/31 03:57:30;;;;;;;4.15;1.60;;;;;;;13.39;58.18;100334.72;7391753;19;20036;-60
2022/12/31 03:59:56;;;;;;;3.00;1.20;;;;;;;13.42;57.60;100328.50;7394305;19;20562;-60
2022/12/31 04:02:22;;;;;;;1.95;0.93;;;;;;;13.25;57.45;100329.84;7394080;19;20010;-61
2022/12/31 04:04:48;;;;;;;2.65;0.68;;;;;;;13.26;57.30;100339.66;7394943;19;19998;-60
2022/12/31 04:07:13;;;;;;;2.45;0.65;;;;;;;13.26;57.33;100317.75;7393613;19;20058;-59
2022/12/31 04:09:39;;;;;;;2.55;0.65;;;;;;;13.29;57.04;100316.19;7391575;19;20010;-60
2022/12/31 04:12:05;;;;;;;2.63;0.70;;;;;;;13.30;57.24;100317.78;7394773;19;19999;-60
2022/12/31 04:14:31;;;;;;;2.90;0.60;;;;;;;13.36;56.86;100310.00;7394404;19;20006;-60
2022/12/31 04:16:57;;;;;;;2.60;0.65;;;;;;;13.37;56.48;100306.91;7393534;19;20007;-60
2022/12/31 04:19:22;;;;;;;2.05;0.60;;;;;;;13.29;57.00;100302.50;7393915;19;20439;-60
2022/12/31 04:21:48;;;;;;;3.40;0.70;;;;;;;13.26;57.12;100305.97;7394172;19;20062;-60
2022/12/31 04:24:14;;;;;;;2.05;0.60;;;;;;;13.21;56.90;100320.81;7393635;19;20074;-59
2022/12/31 04:26:41;;;;;;;2.30;0.50;;;;;;;13.24;57.01;100314.59;7393231;19;20006;-59
2022/12/31 04:29:06;;;;;;;0.95;0.52;;;;;;;13.30;56.49;100295.84;7393953;19;20036;-59
2022/12/31 04:31:32;;;;;;;2.95;0.50;;;;;;;13.35;56.53;100281.81;7392412;19;20007;-58
2022/12/31 04:33:58;;;;;;;1.00;0.43;;;;;;;13.38;56.39;100280.31;7391452;19;19998;-59
2022/12/31 04:36:24;;;;;;;0.57;0.40;;;;;;;13.32;56.50;100272.38;7393366;19;20368;-60
2022/12/31 04:38:49;;;;;;;3.15;0.50;;;;;;;13.25;56.71;100272.28;7394487;19;19997;-58
2022/12/31 04:41:19;;;;;;;0.80;0.30;;;;;;;13.31;56.55;100276.31;7390195;19;20007;-59
2022/12/31 04:43:52;;;;;;;0.55;0.38;;;;;;;13.37;56.25;100286.94;7394046;19;20459;-59
2022/12/31 04:46:21;;;;;;;0.60;0.30;;;;;;;13.19;56.31;100289.44;7393644;19;19994;-60
2022/12/31 04:48:47;;;;;;;1.77;0.50;;;;;;;13.23;56.44;100287.56;7393326;19;20340;-59
2022/12/31 04:51:13;;;;;;;0.85;0.40;;;;;;;13.17;56.71;100287.06;7393069;19;19998;-58
2022/12/31 04:53:39;;;;;;;1.95;0.40;;;;;;;13.22;56.50;100285.97;7392878;19;20019;-60
2022/12/31 04:56:06;;;;;;;1.23;0.40;;;;;;;13.15;56.57;100297.63;7392964;19;19994;-58
2022/12/31 04:58:33;;;;;;;2.70;0.63;;;;;;;13.19;56.71;100305.88;7391118;19;20107;-59
2022/12/31 05:00:59;;;;;;;1.75;0.20;;;;;;;13.22;56.26;100305.94;7391555;19;19999;-58
2022/12/31 05:03:26;;;;;;;0.80;0.52;;;;;;;13.23;55.92;100318.47;7391870;19;20017;-59
2022/12/31 05:05:52;;;;;;;2.05;0.70;;;;;;;13.11;56.57;100321.44;7393223;19;20112;-59
2022/12/31 05:08:19;;;;;;;1.13;0.60;;;;;;;13.19;56.39;100338.75;7390728;19;20051;-59
2022/12/31 05:10:48;;;;;;;0.75;0.50;;;;;;;13.24;56.14;100328.28;7390533;19;20459;-59
2022/12/31 05:13:14;;;;;;;1.70;0.35;;;;;;;13.21;56.14;100340.00;7392017;19;20345;-59
2022/12/31 05:15:40;;;;;;;1.40;0.50;;;;;;;13.29;55.87;100346.34;7393306;19;20011;-60
2022/12/31 05:18:07;;;;;;;1.38;0.60;;;;;;;13.24;56.00;100347.47;7389263;19;20330;-58
2022/12/31 05:20:33;;;;;;;0.82;0.47;;;;;;;13.22;55.94;100358.00;7391164;19;20044;-59
2022/12/31 05:22:59;;;;;;;1.40;0.40;;;;;;;13.22;55.74;100352.50;7390144;19;20358;-59
2022/12/31 05:25:25;;;;;;;0.55;0.50;;;;;;;13.24;56.04;100344.72;7390912;19;20002;-60
2022/12/31 05:27:51;;;;;;;2.55;0.55;;;;;;;13.18;56.16;100354.44;7390360;19;20024;-58
2022/12/31 05:30:17;;;;;;;0.82;0.47;;;;;;;13.13;56.08;100357.47;7392496;19;20078;-59
2022/12/31 05:32:44;;;;;;;0.95;0.55;;;;;;;13.11;56.06;100362.56;7389461;19;20341;-60
2022/12/31 05:35:10;;;;;;;1.20;0.52;;;;;;;13.17;55.97;100360.28;7392252;19;20006;-60
2022/12/31 05:37:36;;;;;;;2.20;0.52;;;;;;;13.25;55.82;100362.75;7390373;19;20078;-60
2022/12/31 05:40:02;;;;;;;0.93;0.60;;;;;;;13.20;55.88;100357.56;7390846;19;20087;-59
2022/12/31 05:42:28;;;;;;;2.45;0.60;;;;;;;13.04;56.12;100359.69;7389670;19;20471;-59
2022/12/31 05:44:54;;;;;;;1.00;0.40;;;;;;;13.04;56.41;100354.22;7389941;19;20006;-59
2022/12/31 05:47:20;;;;;;;1.58;0.52;;;;;;;12.80;56.80;100353.44;7390313;19;20024;-59
2022/12/31 05:49:46;;;;;;;1.02;0.50;;;;;;;12.94;56.57;100353.69;7391733;19;20007;-59
2022/12/31 05:52:12;;;;;;;1.65;0.50;;;;;;;13.12;56.21;100355.88;7391131;19;20538;-59
2022/12/31 05:54:38;;;;;;;1.55;0.73;;;;;;;13.08;56.08;100347.63;7390862;19;20003;-60
2022/12/31 05:57:05;;;;;;;1.38;0.50;;;;;;;13.02;56.61;100351.84;7390382;19;19998;-59
2022/12/31 05:59:31;;;;;;;1.23;0.50;;;;;;;12.98;56.56;100352.97;7388640;19;20462;-60
2022/12/31 06:01:57;;;;;;;2.35;0.80;;;;;;;12.96;56.59;100354.09;7390936;19;20007;-59
2022/12/31 06:04:23;;;;;;;3.15;0.70;;;;;;;13.06;56.11;100354.63;7386910;19;20021;-60
2022/12/31 06:06:49;;;;;;;1.58;0.80;;;;;;;13.09;56.27;100345.66;7389731;19;20002;-60
2022/12/31 06:09:16;;;;;;;1.30;0.60;;;;;;;13.13;56.35;100330.09;7390897;19;20511;-60
2022/12/31 06:11:42;;;;;;;0.95;0.70;;;;;;;13.21;55.94;100334.50;7389704;19;19995;-60
2022/12/31 06:14:08;;;;;;;1.55;0.75;;;;;;;13.28;56.00;100337.34;7387428;19;19998;-60
2022/12/31 06:16:34;;;;;;;3.10;0.88;;;;;;;13.24;55.82;100352.16;7391533;19;20006;-60
2022/12/31 06:19:01;;;;;;;2.10;0.93;;;;;;;13.24;55.94;100363.91;7390996;19;20002;-60
2022/12/31 06:21:28;;;;;;;2.83;0.90;;;;;;;13.28;55.81;100367.47;7389314;19;20007;-60
2022/12/31 06:23:53;;;;;;;3.17;1.20;;;;;;;13.21;56.12;100359.16;7387337;19;20006;-60
2022/12/31 06:26:19;;;;;;;2.25;0.90;;;;;;;13.16;56.25;100367.72;7390997;19;20471;-60
2022/12/31 06:28:45;;;;;;;2.05;1.00;;;;;;;13.10;56.52;100369.97;7390948;19;20002;-60
2022/12/31 06:31:12;;;;;;;2.80;0.90;;;;;;;13.20;56.24;100373.25;7388749;19;20539;-60
2022/12/31 06:33:38;;;;;;;3.28;1.23;;;;;;;13.16;56.08;100367.72;7389683;19;20003;-59
2022/12/31 06:36:06;;;;;;;1.98;0.98;;;;;;;13.00;56.82;100354.16;7390399;19;20010;-59
2022/12/31 06:38:35;;;;;;;1.95;0.80;;;;;;;13.13;56.59;100339.09;7390064;19;20002;-59
2022/12/31 06:41:11;;;;;;;2.25;0.90;;;;;;;13.12;56.39;100345.72;7389570;19;19994;-59
2022/12/31 06:43:39;;;;;;;2.88;0.93;;;;;;;13.05;56.35;100361.28;7388842;19;19999;-60
2022/12/31 06:46:14;;;;;;;3.53;1.55;;;;;;;13.18;56.26;100387.31;7396374;19;20002;-59
2022/12/31 06:48:41;;;;;;;2.42;1.05;;;;;;;13.24;56.16;100385.84;7395961;19;20010;-60
2022/12/31 06:51:11;;;;;;;1.55;1.10;;;;;;;13.29;55.96;100388.25;7398083;19;20061;-60
2022/12/31 06:53:37;;;;;;;1.70;1.00;;;;;;;13.19;56.22;100379.88;7395472;19;20542;-60
2022/12/31 06:56:13;;;;;;;1.75;0.95;;;;;;;13.23;56.14;100389.72;7397815;19;20127;-59
2022/12/31 06:58:46;;;;;;;4.28;1.40;;;;;;;13.12;56.22;100395.03;7395543;19;20007;-59
2022/12/31 07:01:46;;;;;;;2.65;1.00;;;;;;;13.15;56.17;100361.41;7395808;19;20019;-59
2022/12/31 07:04:20;;;;;;;1.98;1.00;;;;;;;13.20;56.39;100362.28;7394603;19;20013;-60
2022/12/31 07:07:12;;;;;;;2.00;1.30;;;;;;;13.22;56.16;100371.69;7397617;19;19995;-59
2022/12/31 07:10:01;;;;;;;2.90;1.10;;;;;;;13.26;55.95;100360.78;7396944;19;20001;-59
2022/12/31 07:12:46;;;;;;;1.45;0.90;;;;;;;13.21;56.32;100375.59;7395873;19;20374;-59
2022/12/31 07:15:15;;;;;;;1.90;1.02;;;;;;;13.25;56.04;100368.22;7394061;19;19999;-59
2022/12/31 07:17:51;;;;;;;1.92;1.02;;;;;;;13.32;55.96;100382.00;7395133;19;19999;-59
2022/12/31 07:20:18;;;;;;;1.67;1.00;;;;;;;13.32;55.77;100403.94;7395170;19;20475;-58
2022/12/31 07:22:45;;;;;;;2.08;1.10;;;;;;;13.36;55.82;100393.06;7396393;19;20007;-59
2022/12/31 07:25:16;;;;;;;1.80;1.00;;;;;;;13.38;55.73;100389.94;7395120;19;20062;-59
2022/12/31 07:28:01;;;;;;;2.67;1.10;;;;;;;13.39;55.75;100396.97;7397858;19;19995;-59
2022/12/31 07:30:43;;;;;;;1.73;1.15;;;;;;;13.34;55.80;100400.84;7397162;19;20069;-60
2022/12/31 07:33:42;;;;;;;2.72;1.40;;;;;;;13.28;55.48;100400.38;7395311;19;19991;-60
2022/12/31 07:36:37;;;;;;;1.85;1.23;;;;;;;13.32;55.82;100390.22;7396255;19;20002;-60
2022/12/31 07:39:12;;;;;;;2.92;1.30;;;;;;;13.33;56.13;100383.59;7395894;19;20089;-59
2022/12/31 07:42:07;;;;;;;3.63;1.40;;;;;;;13.41;56.03;100386.44;7391908;19;20074;-60
2022/12/31 07:45:13;;;;;;;4.03;1.60;;;;;;;13.36;55.97;100367.56;7393568;19;20521;-61
2022/12/31 07:47:39;;;;;;;2.50;1.55;;;;;;;13.37;56.33;100388.34;7393381;19;20027;-61
2022/12/31 07:50:12;;;;;;;3.47;1.90;;;;;;;13.48;56.05;100406.53;7395462;19;19999;-61
2022/12/31 07:52:38;;;;;;;3.43;1.73;;;;;;;13.45;56.09;100401.00;7395545;19;20324;-61
2022/12/31 07:55:04;;;;;;;5.47;2.08;;;;;;;13.45;55.97;100395.50;7390529;19;19995;-61
2022/12/31 07:57:37;;;;;;;3.55;2.17;;;;;;;13.46;55.88;100397.06;7394597;19;20086;-61
2022/12/31 08:00:03;;;;;;;4.10;1.80;;;;;;;13.40;56.07;100399.34;7394167;19;20002;-61
2022/12/31 08:03:09;;;;;;;3.47;2.17;;;;;;;13.44;55.92;100388.44;7394574;19;20039;-61
2022/12/31 08:05:59;;;;;;;3.70;2.03;;;;;;;13.21;56.41;100386.56;7391346;19;20339;-60
2022/12/31 08:09:01;;;;;;;4.53;1.92;;;;;;;13.31;55.75;100371.44;7396222;19;20006;-62
2022/12/31 08:11:40;;;;;;;3.85;2.05;;;;;;;13.30;56.57;100373.38;7393817;19;20210;-61
2022/12/31 08:14:10;;;;;;;3.53;1.98;;;;;;;13.36;56.38;100384.00;7393836;19;20021;-61
2022/12/31 08:16:36;;;;;;;6.18;2.38;;;;;;;13.43;56.40;100384.91;7395341;19;20456;-61
2022/12/31 08:19:03;;;;;;;9.85;6.18;;;;;;;13.46;56.28;100395.16;7395825;19;20529;-62
2022/12/31 08:22:06;;;;;;;4.80;2.55;;;;;;;13.41;55.67;100381.75;7393371;19;20006;-62
2022/12/31 08:24:59;;;;;;;4.18;2.60;;;;;;;13.37;55.89;100380.91;7392807;19;19999;-61
2022/12/31 08:27:46;;;;;;;4.70;2.30;;;;;;;13.40;56.58;100384.88;7395445;19;20002;-60
2022/12/31 08:30:15;;;;;;;4.65;2.80;;;;;;;13.45;56.52;100387.28;7392748;19;20042;-61
2022/12/31 08:33:07;;;;;;;5.22;2.50;;;;;;;13.50;56.00;100403.41;7394384;19;20010;-60
2022/12/31 08:35:39;;;;;;;4.10;2.40;;;;;;;13.50;56.06;100395.97;7392805;19;20020;-61
2022/12/31 08:38:28;;;;;;;3.92;2.47;;;;;;;13.46;56.29;100383.38;7394358;19;20011;-61
2022/12/31 08:41:05;;;;;;;3.35;2.45;;;;;;;13.39;56.65;100386.81;7392048;19;20411;-62
2022/12/31 08:43:48;;;;;;;4.22;2.55;;;;;;;13.31;56.57;100380.44;7393300;19;20070;-60
2022/12/31 08:46:22;;;;;;;3.83;2.83;;;;;;;13.48;56.32;100383.81;7395405;19;20418;-60
2022/12/31 08:48:48;;;;;;;4.13;2.33;;;;;;;13.54;56.12;100376.81;7393934;19;19999;-60
2022/12/31 08:51:21;;;;;;;3.67;2.53;;;;;;;13.45;56.40;100390.81;7394888;19;20033;-60
2022/12/31 08:53:47;;;;;;;5.07;2.90;;;;;;;13.38;56.76;100381.72;7392364;19;20013;-60
2022/12/31 08:56:29;;;;;;;3.95;2.70;;;;;;;13.47;56.29;100384.97;7393992;19;20505;-60
2022/12/31 08:59:06;;;;;;;5.85;2.70;;;;;;;13.50;56.35;100387.75;7393356;19;20002;-60
2022/12/31 09:02:10;;;;;;;4.25;2.42;;;;;;;13.45;55.90;100395.50;7391550;19;19998;-60
2022/12/31 09:05:07;;;;;;;3.20;2.08;;;;;;;13.47;56.17;100387.69;7388786;19;20500;-60
2022/12/31 09:07:38;;;;;;;3.83;2.10;;;;;;;13.50;56.54;100393.22;7390834;19;20018;-60
2022/12/31 09:10:23;;;;;;;3.83;2.10;;;;;;;13.51;56.27;100399.53;7393086;19;19999;-60
2022/12/31 09:13:20;;;;;;;2.78;1.80;;;;;;;13.51;56.49;100402.25;7392176;19;19999;-60
2022/12/31 09:15:49;;;;;;;2.70;1.77;;;;;;;13.52;56.84;100390.91;7391728;19;20483;-60
2022/12/31 09:18:15;;;;;;;2.88;1.90;;;;;;;13.57;56.62;100402.72;7393755;19;20032;-60
2022/12/31 09:20:41;;;;;;;2.50;1.60;;;;;;;13.45;56.80;100403.75;7391410;19;20370;-59
2022/12/31 09:23:07;;;;;;;4.35;1.60;;;;;;;13.43;56.99;100409.59;7390351;19;20019;-59
2022/12/31 09:25:41;;;;;;;2.40;1.45;;;;;;;13.54;56.96;100414.44;7392194;19;20022;-59
2022/12/31 09:28:16;;;;;;;2.78;1.60;;;;;;;13.60;56.56;100410.22;7391199;19;20006;-59
2022/12/31 09:31:02;;;;;;;2.67;1.60;;;;;;;13.66;56.51;100406.78;7393470;19;20009;-61
2022/12/31 09:33:37;;;;;;;1.98;1.23;;;;;;;13.50;56.90;100409.69;7391863;19;20030;-59
2022/12/31 09:36:06;;;;;;;2.47;1.30;;;;;;;13.66;56.84;100408.69;7392613;19;20002;-59
2022/12/31 09:38:47;;;;;;;2.20;1.30;;;;;;;13.55;56.69;100408.56;7390650;19;20002;-59
2022/12/31 09:41:42;;;;;;;1.90;1.40;;;;;;;13.45;56.89;100407.25;7390887;19;20018;-59
2022/12/31 09:44:29;;;;;;;2.33;1.10;;;;;;;13.50;57.36;100403.41;7390146;19;20044;-59
2022/12/31 09:47:09;;;;;;;2.90;1.58;;;;;;;13.49;57.43;100407.31;7392940;19;20006;-58
2022/12/31 09:49:48;;;;;;;1.67;1.30;;;;;;;13.55;57.23;100400.34;7391732;19;20007;-59
2022/12/31 09:52:42;;;;;;;1.67;1.30;;;;;;;13.68;56.80;100396.22;7391432;19;20038;-59
2022/12/31 09:55:32;;;;;;;1.58;1.20;;;;;;;13.48;57.39;100403.00;7389389;19;20507;-59
2022/12/31 09:58:16;;;;;;;2.47;1.20;;;;;;;13.66;57.67;100406.78;7390915;19;20470;-58
2022/12/31 10:00:50;;;;;;;1.80;1.20;;;;;;;13.55;57.99;100411.31;7390452;19;20026;-59
2022/12/31 10:03:55;;;;;;;2.90;1.50;;;;;;;13.65;57.69;100407.91;7390199;19;20002;-59
2022/12/31 10:06:27;;;;;;;2.78;1.27;;;;;;;13.73;57.56;100413.50;7389706;19;20010;-59
2022/12/31 10:09:04;;;;;;;1.48;1.20;;;;;;;13.72;57.63;100411.94;7391096;19;20467;-60
2022/12/31 10:11:48;;;;;;;2.08;1.15;;;;;;;13.57;58.29;100411.72;7391259;19;20066;-58
2022/12/31 10:15:13;;;;;;;1.80;1.23;;;;;;;13.73;57.56;100397.84;7389205;19;20173;-58
2022/12/31 10:18:22;;;;;;;1.60;1.00;;;;;;;13.81;57.63;100413.22;7388422;19;19998;-58
2022/12/31 10:21:32;;;;;;;2.13;0.98;;;;;;;13.87;57.46;100405.47;7395136;19;20003;-59
2022/12/31 10:24:35;;;;;;;3.20;1.15;;;;;;;13.87;57.46;100400.78;7393646;19;20068;-59
2022/12/31 10:27:20;;;;;;;1.38;0.93;;;;;;;13.91;58.00;100414.56;7397922;19;20092;-59
2022/12/31 10:30:16;;;;;;;1.60;0.80;;;;;;;13.82;57.87;100414.00;7398049;19;19999;-59
2022/12/31 10:33:12;;;;;;;2.75;0.88;;;;;;;13.85;57.97;100419.56;7396170;19;19998;-60
2022/12/31 10:35:48;;;;;;;1.30;0.85;;;;;;;13.96;57.71;100419.72;7398099;19;19998;-62
2022/12/31 10:38:31;;;;;;;0.98;0.75;;;;;;;14.01;57.70;100422.13;7398303;19;20305;-60
2022/12/31 10:41:15;;;;;;;0.75;0.55;;;;;;;14.04;58.09;100431.53;7396794;19;20002;-59
2022/12/31 10:44:05;;;;;;;0.80;0.60;;;;;;;13.90;58.03;100437.66;7396011;19;20010;-60
2022/12/31 10:46:58;;;;;;;2.80;0.77;;;;;;;14.09;57.99;100438.66;7396588;19;20003;-60
2022/12/31 10:49:55;;;;;;;1.20;0.73;;;;;;;13.99;58.12;100443.63;7397628;19;20007;-60
2022/12/31 10:52:46;;;;;;;1.42;0.60;;;;;;;13.96;58.19;100455.38;7395449;19;20003;-58
2022/12/31 10:55:49;;;;;;;1.60;0.70;;;;;;;14.05;57.96;100449.59;7393046;19;20061;-58
2022/12/31 10:58:33;;;;;;;1.33;0.65;;;;;;;14.13;57.84;100450.47;7397112;19;20062;-61
2022/12/31 11:01:17;;;;;;;;;;;;;;;13.77;58.63;100437.06;7396267;19;20073;-58
2022/12/31 11:04:18;;;;;;;1.60;0.60;;;;;;;14.12;57.91;100426.94;7394974;19;19935;-58
2022/12/31 11:07:23;;;;;;;1.88;0.38;;;;;;;14.26;56.99;100427.09;7397272;19;20048;-58
2022/12/31 11:09:57;;;;;;;1.30;0.47;;;;;;;14.18;57.76;100441.91;7397565;19;20062;-58
2022/12/31 11:12:50;;;;;;;1.20;0.57;;;;;;;14.18;57.52;100461.91;7396243;19;20006;-59
2022/12/31 11:15:42;;;;;;;2.05;0.70;;;;;;;14.02;57.42;100461.31;7392403;19;20459;-59
2022/12/31 11:18:26;;;;;;;0.55;0.32;;;;;;;14.06;57.71;100445.69;7396474;19;20408;-59
2022/12/31 11:20:55;;;;;;;2.15;0.50;;;;;;;14.42;56.87;100460.59;7395873;19;20006;-59
2022/12/31 11:23:42;;;;;;;0.50;0.40;;;;;;;14.44;56.63;100463.78;7393590;19;20026;-58
2022/12/31 11:26:35;;;;;;;0.80;0.38;;;;;;;14.54;56.52;100464.25;7394239;19;20363;-58
2022/12/31 11:29:52;;;;;;;1.27;0.70;;;;;;;14.54;56.10;100469.75;7395040;19;20010;-58
2022/12/31 11:32:47;;;;;;;0.93;0.50;;;;;;;14.82;55.75;100452.00;7393710;19;20003;-60
2022/12/31 11:35:38;;;;;;;1.20;0.40;;;;;;;14.80;56.08;100453.16;7393596;19;20470;-59
2022/12/31 11:38:42;;;;;;;1.23;0.70;;;;;;;14.53;56.46;100451.69;7396071;19;20140;-59
2022/12/31 11:41:38;;;;;;;1.60;0.60;;;;;;;14.54;56.39;100453.28;7394069;19;20328;-59
2022/12/31 11:44:22;;;;;;;2.67;1.02;;;;;;;14.65;56.44;100445.94;7391733;19;20082;-59
2022/12/31 11:47:01;;;;;;;0.90;0.57;;;;;;;14.63;56.15;100460.03;7396819;19;20007;-59
2022/12/31 11:50:11;;;;;;;1.40;0.80;;;;;;;14.62;56.46;100449.44;7395718;19;20007;-59
2022/12/31 11:53:01;;;;;;;2.17;0.70;;;;;;;14.59;56.48;100431.72;7393540;19;19999;-59
2022/12/31 11:55:50;;;;;;;1.27;0.80;;;;;;;14.70;55.97;100440.09;7396543;19;20018;-59
2022/12/31 11:58:19;;;;;;;1.65;0.75;;;;;;;14.67;56.61;100432.59;7395307;19;20017;-59
2022/12/31 12:00:58;;;;;;;1.52;0.80;;;;;;;14.77;56.45;100440.19;7393935;19;20005;-59
2022/12/31 12:03:24;;;;;;;1.83;0.77;;;;;;;14.80;56.31;100439.41;7391906;19;20066;-61
2022/12/31 12:05:50;;;;;;;1.50;0.50;;;;;;;14.68;56.73;100436.94;7391475;19;20031;-58
2022/12/31 12:08:16;;;;;;;1.27;0.50;;;;;;;14.76;56.44;100440.56;7394908;19;20444;-58
2022/12/31 12:10:49;;;;;;;1.00;0.80;;;;;;;14.73;56.28;100416.56;7394952;19;20017;-58
2022/12/31 12:13:20;;;;;;;3.63;0.88;;;;;;;14.86;56.16;100420.63;7393429;19;20019;-58